Time;durP1;ratioP1;P1;durP2;ratioP2;P2;SDS_P1;SDS_P2;PMS_P1;PMS_P2;Temp;Humidity;BMP_temperature;BMP_pressure;BME280_temperature;BME280_humidity;BME280_pressure;Samples;Min_cycle;Max_cycle;Signal;HPM_P1;HPM_P2
2022/11/09 00:01:20;;;;;;;15.67;9.60;;;;;;;10.84;95.09;97774.91;5140112;23;21051;-91
2022/11/09 00:03:23;;;;;;;13.37;9.20;;;;;;;10.85;96.36;97760.88;5115787;23;20652;-91
2022/11/09 00:05:26;;;;;;;11.87;9.47;;;;;;;10.85;95.16;97761.75;5114341;23;20998;-91
2022/11/09 00:07:30;;;;;;;14.10;9.20;;;;;;;10.86;97.19;97766.00;5113559;23;20621;-91
2022/11/09 00:09:33;;;;;;;12.27;9.23;;;;;;;10.85;97.00;97769.56;5142434;22;20572;-91
2022/11/09 00:11:37;;;;;;;11.60;9.90;;;;;;;10.85;96.55;97777.41;5140396;23;20574;-91
2022/11/09 00:13:43;;;;;;;12.37;8.90;;;;;;;10.87;96.88;97770.28;5141051;23;20676;-90
2022/11/09 00:15:46;;;;;;;11.10;9.73;;;;;;;10.87;95.71;97769.44;5114090;23;20582;-91
2022/11/09 00:17:50;;;;;;;13.60;9.60;;;;;;;10.88;95.52;97768.47;5139824;23;21104;-91
2022/11/09 00:19:53;;;;;;;10.40;9.17;;;;;;;10.89;96.33;97767.53;5141091;23;20566;-91
2022/11/09 00:21:56;;;;;;;12.23;9.00;;;;;;;10.92;96.96;97765.53;5140935;23;20666;-91
2022/11/09 00:23:59;;;;;;;12.50;9.00;;;;;;;10.93;97.27;97764.59;5140989;23;20605;-91
2022/11/09 00:26:03;;;;;;;12.27;9.30;;;;;;;10.94;96.98;97760.19;5139884;23;20975;-91
2022/11/09 00:28:06;;;;;;;13.70;10.33;;;;;;;10.95;96.06;97764.47;5140251;23;20612;-91
2022/11/09 00:30:10;;;;;;;13.10;8.93;;;;;;;10.95;97.68;97767.09;5141759;22;20581;-91
2022/11/09 00:32:14;;;;;;;12.60;9.50;;;;;;;10.96;97.22;97756.53;5140511;23;20565;-91
2022/11/09 00:34:20;;;;;;;15.63;9.30;;;;;;;10.98;96.04;97759.84;5139830;23;20574;-91
2022/11/09 00:36:24;;;;;;;10.50;8.70;;;;;;;10.99;96.88;97750.25;5139237;23;20588;-90
2022/11/09 00:38:27;;;;;;;19.53;9.10;;;;;;;11.00;95.57;97755.34;5115067;23;20578;-90
2022/11/09 00:40:31;;;;;;;12.70;8.70;;;;;;;10.99;97.50;97756.31;5138178;23;20624;-90
2022/11/09 00:42:34;;;;;;;11.33;7.83;;;;;;;10.99;95.80;97751.09;5114863;23;20666;-90
2022/11/09 00:44:37;;;;;;;10.70;8.60;;;;;;;10.99;96.09;97753.69;5114526;23;20628;-90
2022/11/09 00:46:40;;;;;;;17.93;9.17;;;;;;;11.00;96.36;97754.53;5113857;23;20570;-90
2022/11/09 00:48:43;;;;;;;11.10;8.60;;;;;;;11.00;96.86;97750.13;5139547;23;20679;-91
2022/11/09 00:50:50;;;;;;;11.50;8.13;;;;;;;10.99;96.80;97747.63;5113460;23;21016;-91
2022/11/09 00:52:53;;;;;;;8.93;7.80;;;;;;;11.02;96.00;97752.63;5115102;23;20575;-91
2022/11/09 00:54:57;;;;;;;10.30;7.90;;;;;;;11.00;96.58;97757.13;5139728;23;20590;-91
2022/11/09 00:57:00;;;;;;;11.60;8.47;;;;;;;11.01;96.38;97753.59;5139408;23;20640;-91
2022/11/09 00:59:04;;;;;;;12.10;9.03;;;;;;;11.01;96.15;97748.38;5114629;23;20579;-91
2022/11/09 01:01:10;;;;;;;9.83;8.23;;;;;;;10.99;96.42;97753.69;5113477;23;20602;-90
2022/11/09 01:03:13;;;;;;;10.40;8.53;;;;;;;11.00;97.71;97752.72;5114817;23;20633;-90
2022/11/09 01:05:17;;;;;;;12.73;8.03;;;;;;;11.01;96.82;97751.78;5115413;23;21207;-91
2022/11/09 01:07:22;;;;;;;11.33;8.97;;;;;;;11.00;95.84;97750.13;5114770;23;20625;-91
2022/11/09 01:09:25;;;;;;;12.00;9.30;;;;;;;11.01;97.28;97751.78;5114280;23;20578;-91
2022/11/09 01:11:29;;;;;;;10.50;8.40;;;;;;;11.00;97.16;97749.31;5139397;23;20585;-90
2022/11/09 01:13:33;;;;;;;11.10;8.13;;;;;;;11.01;96.27;97753.59;5115427;23;20570;-90
2022/11/09 01:15:40;;;;;;;12.70;8.47;;;;;;;11.01;97.22;97751.78;5139623;23;20593;-91
2022/11/09 01:17:43;;;;;;;11.07;8.23;;;;;;;11.03;96.97;97751.69;5140252;23;20580;-91
2022/11/09 01:19:46;;;;;;;10.83;8.27;;;;;;;11.04;96.44;97748.97;5138722;23;20641;-91
2022/11/09 01:21:50;;;;;;;13.70;8.63;;;;;;;11.06;97.14;97751.44;5139402;23;20652;-91
2022/11/09 01:23:55;;;;;;;10.50;8.63;;;;;;;11.06;97.72;97743.63;5115245;23;20617;-90
2022/11/09 01:25:59;;;;;;;10.83;8.70;;;;;;;11.06;96.81;97738.41;5114718;23;20591;-91
2022/11/09 01:28:02;;;;;;;10.50;9.30;;;;;;;11.07;97.30;97743.50;5115039;23;20588;-91
2022/11/09 01:30:07;;;;;;;9.87;8.00;;;;;;;11.06;97.75;97739.22;5139461;23;20656;-91
2022/11/09 01:32:10;;;;;;;10.67;8.13;;;;;;;11.05;96.02;97748.03;5115106;23;20648;-91
2022/11/09 01:34:13;;;;;;;9.33;7.83;;;;;;;11.08;97.05;97746.94;5140664;22;20585;-91
2022/11/09 01:36:18;;;;;;;13.20;9.20;;;;;;;11.09;96.92;97740.78;5139483;23;20951;-90
2022/11/09 01:38:21;;;;;;;12.07;7.97;;;;;;;11.12;97.47;97753.59;5113252;23;20627;-91
2022/11/09 01:40:27;;;;;;;10.40;8.30;;;;;;;11.13;97.73;97757.88;5138546;23;20659;-91
2022/11/09 01:42:30;;;;;;;10.27;8.20;;;;;;;11.12;97.29;97754.41;5140997;22;20605;-90
2022/11/09 01:44:37;;;;;;;9.97;8.07;;;;;;;11.12;96.34;97759.63;5139575;23;20612;-91
2022/11/09 01:46:47;;;;;;;11.30;8.17;;;;;;;11.14;97.59;97763.00;5115034;23;20584;-91
2022/11/09 01:48:53;;;;;;;12.17;8.70;;;;;;;11.17;97.73;97764.50;5139481;23;20600;-90
2022/11/09 01:50:58;;;;;;;10.50;7.90;;;;;;;11.19;96.96;97750.41;5138057;23;20569;-90
2022/11/09 01:53:02;;;;;;;9.77;7.80;;;;;;;11.21;96.59;97764.16;5112717;23;20637;-91
2022/11/09 01:55:09;;;;;;;10.43;8.00;;;;;;;11.22;97.71;97760.63;5114247;23;20609;-91
2022/11/09 01:57:16;;;;;;;10.30;7.83;;;;;;;11.24;98.11;97761.31;5114934;23;20636;-90
2022/11/09 01:59:21;;;;;;;9.27;7.47;;;;;;;11.24;96.80;97748.28;5139988;23;21161;-91
2022/11/09 02:01:25;;;;;;;9.40;7.87;;;;;;;11.26;97.20;97750.75;5114453;23;21141;-91
2022/11/09 02:03:31;;;;;;;10.20;7.80;;;;;;;11.27;97.41;97752.44;5113363;23;21263;-90
2022/11/09 02:05:36;;;;;;;8.97;8.00;;;;;;;11.27;97.52;97752.44;5113867;23;20639;-91
2022/11/09 02:07:40;;;;;;;12.23;7.87;;;;;;;11.28;96.82;97754.94;5113951;23;20911;-91
2022/11/09 02:09:47;;;;;;;11.17;7.97;;;;;;;11.27;97.29;97740.22;5113925;23;21177;-90
2022/11/09 02:11:50;;;;;;;10.00;6.97;;;;;;;11.28;97.37;97734.88;5138430;23;20607;-91
2022/11/09 02:13:58;;;;;;;11.47;8.23;;;;;;;11.29;96.68;97735.72;5114294;23;20590;-91
2022/11/09 02:16:01;;;;;;;12.10;7.97;;;;;;;11.29;97.01;97741.75;5139491;23;20573;-91
2022/11/09 02:18:05;;;;;;;8.97;7.23;;;;;;;11.30;96.39;97747.81;5114309;23;20574;-91
2022/11/09 02:20:11;;;;;;;11.23;7.13;;;;;;;11.28;97.90;97739.25;5139420;23;20608;-90
2022/11/09 02:22:15;;;;;;;8.50;7.13;;;;;;;11.27;97.99;97737.59;5137547;23;20608;-91
2022/11/09 02:24:18;;;;;;;8.37;7.07;;;;;;;11.26;97.28;97738.56;5113883;23;20624;-91
2022/11/09 02:26:25;;;;;;;10.60;7.90;;;;;;;11.27;97.25;97747.22;5113664;23;20582;-91
2022/11/09 02:28:28;;;;;;;9.40;7.80;;;;;;;11.26;98.26;97746.41;5137478;23;21059;-90
2022/11/09 02:30:33;;;;;;;9.13;6.97;;;;;;;11.27;97.72;97744.59;5114347;23;20964;-91
2022/11/09 02:32:37;;;;;;;8.53;7.40;;;;;;;11.26;97.76;97758.59;5139739;23;20940;-91
2022/11/09 02:34:40;;;;;;;8.50;6.33;;;;;;;11.27;96.33;97766.31;5113260;23;20582;-91
2022/11/09 02:36:45;;;;;;;11.90;7.13;;;;;;;11.27;98.35;97771.53;5139219;23;20672;-91
2022/11/09 02:38:54;;;;;;;10.67;7.47;;;;;;;11.26;98.18;97777.72;5113939;23;20677;-91
2022/11/09 02:40:58;;;;;;;9.10;6.50;;;;;;;11.28;97.63;97774.03;5138281;23;20683;-91
2022/11/09 02:43:02;;;;;;;7.53;6.03;;;;;;;11.30;97.83;97774.72;5138629;23;20622;-90
2022/11/09 02:45:08;;;;;;;10.53;6.90;;;;;;;11.32;97.19;97767.63;5138811;23;20585;-91
2022/11/09 02:47:13;;;;;;;11.60;6.60;;;;;;;11.34;97.21;97759.69;5138195;23;20573;-91
2022/11/09 02:49:16;;;;;;;8.27;6.50;;;;;;;11.35;97.32;97758.72;5114286;23;21169;-91
2022/11/09 02:51:20;;;;;;;9.73;7.00;;;;;;;11.37;96.65;97769.91;5140239;23;20636;-91
2022/11/09 02:53:25;;;;;;;8.50;6.67;;;;;;;11.39;97.96;97773.22;5114333;23;20589;-91
2022/11/09 02:55:28;;;;;;;11.17;6.37;;;;;;;11.39;98.47;97774.03;5113535;23;20673;-90
2022/11/09 02:57:31;;;;;;;9.70;7.40;;;;;;;11.41;96.59;97784.34;5138848;23;20648;-91
2022/11/09 02:59:36;;;;;;;9.83;6.60;;;;;;;11.42;98.53;97788.63;5114562;23;20670;-90
2022/11/09 03:01:40;;;;;;;8.53;6.57;;;;;;;11.44;98.26;97798.03;5138646;23;20581;-90
2022/11/09 03:03:43;;;;;;;8.50;6.40;;;;;;;11.45;96.72;97797.06;5138335;23;20679;-91
2022/11/09 03:05:47;;;;;;;6.87;5.97;;;;;;;11.48;98.26;97798.66;5112941;23;20958;-91
2022/11/09 03:07:53;;;;;;;9.00;6.70;;;;;;;11.48;98.50;97804.69;5113263;23;20949;-91
2022/11/09 03:09:58;;;;;;;8.23;5.83;;;;;;;11.48;97.13;97812.53;5139799;23;20557;-91
2022/11/09 03:12:27;;;;;;;7.90;6.50;;;;;;;11.50;98.42;97817.63;5138912;23;20712;-91
2022/11/09 03:14:26;;;;;;;7.10;6.17;;;;;;;11.51;99.10;97824.53;5114017;23;20589;-91
2022/11/09 03:16:32;;;;;;;7.83;6.23;;;;;;;11.53;97.44;97830.47;5137895;23;20611;-91
2022/11/09 03:18:35;;;;;;;7.80;5.67;;;;;;;11.52;98.60;97829.63;5113445;23;20652;-91
2022/11/09 03:20:38;;;;;;;8.80;6.43;;;;;;;11.51;98.20;97819.31;5114383;23;20637;-91
2022/11/09 03:22:42;;;;;;;8.10;6.00;;;;;;;11.48;97.85;97820.38;5139470;23;20597;-91
2022/11/09 03:24:45;;;;;;;8.60;6.50;;;;;;;11.44;97.41;97820.69;5139130;23;21057;-90
2022/11/09 03:26:50;;;;;;;10.00;7.10;;;;;;;11.42;98.84;97818.19;5137973;23;20668;-91
2022/11/09 03:28:53;;;;;;;8.50;6.83;;;;;;;11.44;97.68;97825.91;5113655;23;20570;-91
2022/11/09 03:30:56;;;;;;;8.17;7.27;;;;;;;11.45;98.26;97825.78;5114163;23;20664;-91
2022/11/09 03:33:00;;;;;;;8.63;6.60;;;;;;;11.47;96.83;97833.53;5114126;23;20617;-90
2022/11/09 03:35:03;;;;;;;9.10;6.37;;;;;;;11.50;99.17;97843.75;5113002;23;20586;-91
2022/11/09 03:37:07;;;;;;;9.57;6.50;;;;;;;11.51;98.75;97848.03;5139593;23;20677;-91
2022/11/09 03:39:10;;;;;;;6.80;5.63;;;;;;;11.53;97.33;97841.75;5138609;23;20569;-90
2022/11/09 03:41:13;;;;;;;13.43;6.50;;;;;;;11.54;98.02;97839.97;5115556;23;20573;-90
2022/11/09 03:43:18;;;;;;;15.20;6.23;;;;;;;11.56;97.63;97840.66;5116081;23;20618;-90
2022/11/09 03:45:22;;;;;;;11.20;7.13;;;;;;;11.58;99.87;97834.41;5139324;23;20588;-90
2022/11/09 03:47:24;;;;;;;8.30;6.30;;;;;;;11.60;98.68;97826.44;5142461;22;20577;-90
2022/11/09 03:49:28;;;;;;;8.77;7.33;;;;;;;11.60;99.17;97834.28;5115620;23;20582;-91
2022/11/09 03:51:30;;;;;;;8.10;7.17;;;;;;;11.60;98.54;97826.44;5166827;23;20626;-91
2022/11/09 03:53:34;;;;;;;10.57;7.70;;;;;;;11.63;99.22;97834.03;5141138;23;21123;-91
2022/11/09 03:55:37;;;;;;;9.67;7.00;;;;;;;11.66;100.00;97844.25;5116328;23;20585;-90
2022/11/09 03:57:41;;;;;;;8.30;7.17;;;;;;;11.69;99.41;97849.25;5139644;23;20631;-91
2022/11/09 03:59:45;;;;;;;10.60;7.27;;;;;;;11.71;99.84;97849.94;5115959;23;20582;-90
2022/11/09 04:01:48;;;;;;;12.50;7.97;;;;;;;11.71;100.00;97853.38;5140062;23;20545;-91
2022/11/09 04:03:51;;;;;;;8.60;7.30;;;;;;;11.72;100.00;97859.47;5115511;23;20637;-90
2022/11/09 04:05:54;;;;;;;9.20;7.37;;;;;;;11.73;100.00;97868.94;5140706;23;20577;-90
2022/11/09 04:07:58;;;;;;;8.43;7.23;;;;;;;11.75;99.84;97864.47;5114541;23;20605;-90
2022/11/09 04:10:01;;;;;;;10.20;7.30;;;;;;;11.77;100.00;97871.22;5140300;23;20584;-91
2022/11/09 04:12:05;;;;;;;10.17;7.30;;;;;;;11.78;100.00;97865.03;5140399;23;20612;-92
2022/11/09 04:14:08;;;;;;;7.40;6.60;;;;;;;11.78;100.00;97859.81;5115472;23;20895;-91
2022/11/09 04:16:12;;;;;;;10.37;7.43;;;;;;;11.77;100.00;97856.38;5142043;23;20628;-92
2022/11/09 04:18:16;;;;;;;9.03;7.63;;;;;;;11.75;100.00;97857.44;5139501;23;20569;-92
2022/11/09 04:20:19;;;;;;;10.83;7.83;;;;;;;11.75;99.71;97853.03;5114768;23;20589;-91
2022/11/09 04:22:23;;;;;;;7.97;7.00;;;;;;;11.75;100.00;97849.59;5115679;23;20702;-91
2022/11/09 04:24:26;;;;;;;8.27;7.33;;;;;;;11.75;100.00;97850.44;5139694;23;20973;-91
2022/11/09 04:26:29;;;;;;;10.03;7.37;;;;;;;11.73;100.00;97851.50;5117711;23;20575;-90
2022/11/09 04:28:32;;;;;;;9.07;7.37;;;;;;;11.71;100.00;97848.16;5139776;23;20684;-91
2022/11/09 04:30:36;;;;;;;8.70;7.70;;;;;;;11.66;100.00;97845.06;5115184;23;20572;-91
2022/11/09 04:32:41;;;;;;;9.90;7.90;;;;;;;11.68;100.00;97851.03;5140360;23;20577;-91
2022/11/09 04:34:44;;;;;;;9.00;7.03;;;;;;;11.67;100.00;97849.38;5141161;23;20579;-91
2022/11/09 04:36:47;;;;;;;10.37;8.10;;;;;;;11.68;100.00;97848.44;5113794;23;20612;-91
2022/11/09 04:38:50;;;;;;;9.70;7.70;;;;;;;11.68;100.00;97850.19;5139847;23;20580;-90
2022/11/09 04:40:53;;;;;;;10.23;8.27;;;;;;;11.70;100.00;97850.91;5115101;23;20609;-90
2022/11/09 04:42:59;;;;;;;8.97;7.80;;;;;;;11.74;100.00;97858.38;5140652;23;20639;-90
2022/11/09 04:45:02;;;;;;;8.33;6.90;;;;;;;11.76;100.00;97862.53;5115332;23;20681;-90
2022/11/09 04:47:05;;;;;;;9.43;8.03;;;;;;;11.79;100.00;97853.66;5116110;23;20589;-90
2022/11/09 04:49:10;;;;;;;8.83;7.93;;;;;;;11.82;100.00;97859.47;5113466;23;21192;-91
2022/11/09 04:51:13;;;;;;;7.97;7.03;;;;;;;11.84;100.00;97867.19;5139420;23;20577;-90
2022/11/09 04:53:16;;;;;;;9.97;6.97;;;;;;;11.88;100.00;97869.44;5141141;23;20577;-90
2022/11/09 04:55:19;;;;;;;10.70;8.10;;;;;;;11.90;100.00;97864.09;5140179;23;20584;-90
2022/11/09 04:57:22;;;;;;;8.43;7.10;;;;;;;11.91;100.00;97866.59;5142000;22;20615;-90
2022/11/09 04:59:25;;;;;;;8.77;7.77;;;;;;;11.94;100.00;97866.38;5115013;23;20676;-90
2022/11/09 05:01:28;;;;;;;11.23;7.50;;;;;;;11.95;100.00;97857.59;5139589;23;20999;-90
2022/11/09 05:03:31;;;;;;;9.33;7.97;;;;;;;11.97;100.00;97860.91;5140898;23;20629;-90
2022/11/09 05:05:37;;;;;;;12.50;8.00;;;;;;;11.99;100.00;97850.31;5114668;23;20661;-91
2022/11/09 05:07:40;;;;;;;10.83;8.47;;;;;;;12.02;100.00;97857.94;5114644;23;20585;-92
2022/11/09 05:09:43;;;;;;;10.33;8.07;;;;;;;12.03;100.00;97868.28;5114684;23;20713;-91
2022/11/09 05:11:46;;;;;;;8.83;7.50;;;;;;;12.04;100.00;97872.56;5139800;23;20620;-91
2022/11/09 05:13:50;;;;;;;8.30;7.40;;;;;;;12.07;100.00;97867.09;5115752;23;20626;-91
2022/11/09 05:15:53;;;;;;;9.70;8.30;;;;;;;12.08;100.00;97867.91;5115728;23;20681;-91
2022/11/09 05:17:57;;;;;;;8.77;7.87;;;;;;;12.08;100.00;97863.50;5141456;23;21001;-91
2022/11/09 05:20:00;;;;;;;9.40;8.13;;;;;;;12.10;100.00;97872.03;5115770;23;20691;-91
2022/11/09 05:24:21;;;;;;;11.60;8.20;;;;;;;12.07;100.00;97858.41;5113386;23;20629;-91
2022/11/09 05:26:26;;;;;;;9.37;8.10;;;;;;;12.05;100.00;97852.47;5114849;23;20578;-91
2022/11/09 05:28:29;;;;;;;9.03;8.07;;;;;;;12.05;100.00;97855.09;5139817;23;20605;-91
2022/11/09 05:30:32;;;;;;;10.50;7.70;;;;;;;12.03;100.00;97859.59;5114778;23;20619;-91
2022/11/09 05:32:36;;;;;;;10.17;7.50;;;;;;;12.01;100.00;97867.56;5113840;23;20674;-91
2022/11/09 05:34:39;;;;;;;12.43;8.53;;;;;;;12.00;100.00;97863.28;5113812;23;20621;-91
2022/11/09 05:36:42;;;;;;;8.73;7.60;;;;;;;12.01;100.00;97867.56;5114974;23;20677;-91
2022/11/09 05:38:47;;;;;;;12.67;7.97;;;;;;;12.01;100.00;97866.72;5114387;23;21200;-91
2022/11/09 05:40:50;;;;;;;10.55;7.60;;;;;;;11.99;100.00;97858.16;5140260;23;21114;-91
2022/11/09 05:42:55;;;;;;;9.03;8.00;;;;;;;11.98;100.00;97859.97;5113498;23;20179;-92
2022/11/09 05:44:58;;;;;;;9.30;7.83;;;;;;;11.98;100.00;97852.13;5137906;23;20609;-92
2022/11/09 05:47:22;;;;;;;8.50;7.60;;;;;;;11.99;100.00;97853.75;5140041;23;21175;-91
2022/11/09 05:49:25;;;;;;;10.70;8.30;;;;;;;11.99;100.00;97845.09;5139433;23;20958;-92
2022/11/09 05:51:28;;;;;;;12.00;7.30;;;;;;;11.99;100.00;97856.38;5112099;23;20576;-91
2022/11/09 05:53:31;;;;;;;9.43;8.37;;;;;;;12.01;100.00;97851.88;5141212;22;20691;-91
2022/11/09 05:55:36;;;;;;;8.83;7.90;;;;;;;12.00;100.00;97855.44;5162749;23;20545;-91
2022/11/09 05:57:39;;;;;;;12.73;8.50;;;;;;;12.03;100.00;97843.91;5113821;23;21092;-91
2022/11/09 05:59:42;;;;;;;10.00;7.83;;;;;;;12.05;100.00;97839.41;5114991;23;20699;-91
2022/11/09 06:01:45;;;;;;;8.60;7.73;;;;;;;12.07;100.00;97847.94;5138190;23;20570;-91
2022/11/09 06:03:48;;;;;;;12.27;9.07;;;;;;;12.06;100.00;97848.91;5164018;23;21218;-91
2022/11/09 06:05:51;;;;;;;10.20;8.00;;;;;;;12.09;100.00;97849.50;5113854;23;20578;-90
2022/11/09 06:07:54;;;;;;;10.40;8.90;;;;;;;12.13;100.00;97855.31;5114918;23;20574;-90
2022/11/09 06:09:57;;;;;;;11.17;9.93;;;;;;;12.17;100.00;97859.34;5113659;23;20705;-91
2022/11/09 06:12:02;;;;;;;10.80;9.30;;;;;;;12.22;100.00;97865.03;5113151;23;21129;-90
2022/11/09 06:14:05;;;;;;;11.67;9.70;;;;;;;12.26;100.00;97869.91;5114514;23;20614;-90
2022/11/09 06:16:09;;;;;;;8.63;7.73;;;;;;;12.31;100.00;97867.75;5112886;23;20576;-89
2022/11/09 06:18:12;;;;;;;10.67;8.03;;;;;;;12.32;100.00;97862.41;5139486;23;20589;-90
2022/11/09 06:20:16;;;;;;;15.03;12.60;;;;;;;12.34;100.00;97859.69;5114362;23;20990;-90
2022/11/09 06:22:19;;;;;;;15.07;12.93;;;;;;;12.37;100.00;97859.44;5113281;23;21103;-90
2022/11/09 06:24:22;;;;;;;14.10;11.20;;;;;;;12.37;100.00;97854.19;5113226;23;20614;-90
2022/11/09 06:26:25;;;;;;;10.53;9.13;;;;;;;12.39;100.00;97853.13;5113769;23;20585;-90
2022/11/09 06:28:30;;;;;;;11.50;7.90;;;;;;;12.40;100.00;97857.44;5113867;23;20582;-90
2022/11/09 06:30:33;;;;;;;19.77;17.97;;;;;;;12.41;100.00;97855.63;5137928;23;21109;-91
2022/11/09 06:32:36;;;;;;;21.47;19.50;;;;;;;12.44;100.00;97863.25;5113601;23;20914;-91
2022/11/09 06:34:39;;;;;;;11.57;9.67;;;;;;;12.45;100.00;97868.34;5138766;23;20582;-92
2022/11/09 06:36:42;;;;;;;8.97;7.60;;;;;;;12.45;100.00;97868.34;5113242;23;21043;-91
2022/11/09 06:38:48;;;;;;;10.17;7.77;;;;;;;12.44;100.00;97873.69;5113615;23;20816;-91
2022/11/09 06:40:52;;;;;;;11.43;8.60;;;;;;;12.41;100.00;97880.00;5113393;23;20587;-91
2022/11/09 06:42:57;;;;;;;11.60;9.30;;;;;;;12.37;100.00;97885.59;5138310;23;20567;-91
2022/11/09 06:45:01;;;;;;;12.67;9.20;;;;;;;12.31;100.00;97888.69;5141150;23;21043;-87
2022/11/09 06:47:04;;;;;;;10.70;9.33;;;;;;;12.28;100.00;97895.00;5111730;23;20702;-88
2022/11/09 06:49:10;;;;;;;12.47;9.10;;;;;;;12.23;100.00;97883.22;5141190;23;20738;-86
2022/11/09 06:51:14;;;;;;;10.10;8.80;;;;;;;12.19;100.00;97884.41;5113995;23;20646;-88
2022/11/09 06:53:18;;;;;;;13.57;10.30;;;;;;;12.11;100.00;97881.56;5114359;23;21087;-87
2022/11/09 06:55:22;;;;;;;12.40;10.87;;;;;;;12.04;100.00;97885.63;5112671;23;21160;-87
2022/11/09 06:57:25;;;;;;;16.20;11.40;;;;;;;12.02;100.00;97882.28;5113654;23;20614;-87
2022/11/09 06:59:31;;;;;;;12.23;10.63;;;;;;;12.05;100.00;97894.28;5114186;23;20618;-87
2022/11/09 07:01:37;;;;;;;14.90;11.30;;;;;;;12.06;100.00;97896.78;5114261;23;20670;-87
2022/11/09 07:03:43;;;;;;;12.53;11.20;;;;;;;12.07;100.00;97895.84;5140384;23;20601;-86
2022/11/09 07:05:47;;;;;;;13.03;10.30;;;;;;;12.08;100.00;97896.66;5113632;23;20969;-87
2022/11/09 07:07:50;;;;;;;13.10;10.20;;;;;;;12.10;100.00;97905.22;5138140;23;20573;-86
2022/11/09 07:09:54;;;;;;;11.57;10.33;;;;;;;12.13;100.00;97908.41;5113747;23;20911;-87
2022/11/09 07:11:58;;;;;;;12.60;10.17;;;;;;;12.14;100.00;97904.84;5112599;23;20945;-87
2022/11/09 07:14:02;;;;;;;12.97;10.30;;;;;;;12.16;100.00;97912.59;5138597;23;20584;-86
2022/11/09 07:16:10;;;;;;;10.70;9.50;;;;;;;12.14;100.00;97910.09;5115577;23;20578;-86
2022/11/09 07:18:15;;;;;;;14.20;10.07;;;;;;;12.14;100.00;97904.84;5115112;23;20600;-86
2022/11/09 07:20:20;;;;;;;18.43;10.53;;;;;;;12.13;100.00;97911.03;5116878;23;20578;-87
2022/11/09 07:22:23;;;;;;;13.87;11.07;;;;;;;12.16;100.00;97912.59;5117589;23;20616;-87
2022/11/09 07:24:28;;;;;;;13.67;10.40;;;;;;;12.14;100.00;97907.47;5115106;23;20957;-87
2022/11/09 07:26:31;;;;;;;13.60;11.47;;;;;;;12.14;100.00;97917.94;5115116;23;20622;-86
2022/11/09 07:28:34;;;;;;;12.57;10.53;;;;;;;12.14;100.00;97917.09;5115926;23;20961;-86
2022/11/09 07:30:38;;;;;;;13.77;10.80;;;;;;;12.17;100.00;97928.16;5114876;23;20590;-87
2022/11/09 07:32:43;;;;;;;13.23;10.67;;;;;;;12.19;100.00;97951.56;5115550;23;20579;-87
2022/11/09 07:35:08;;;;;;;13.23;10.23;;;;;;;12.15;100.00;97984.97;5114991;23;20889;-86
2022/11/09 07:37:12;;;;;;;15.03;10.93;;;;;;;12.13;100.00;97991.25;5139655;23;20574;-87
2022/11/09 07:39:17;;;;;;;10.13;9.03;;;;;;;12.11;100.00;97995.78;5141915;23;20573;-87
2022/11/09 07:41:21;;;;;;;9.43;8.07;;;;;;;12.14;100.00;97992.91;5116082;23;20582;-88
2022/11/09 07:43:28;;;;;;;10.90;8.93;;;;;;;12.20;100.00;97993.28;5118256;23;20578;-88
2022/11/09 07:45:35;;;;;;;8.27;7.40;;;;;;;12.27;100.00;97995.31;5143967;23;20633;-89
2022/11/09 07:47:39;;;;;;;11.60;9.00;;;;;;;12.34;100.00;97975.59;5118980;23;20595;-88
2022/11/09 07:49:42;;;;;;;16.70;12.10;;;;;;;12.40;100.00;97971.66;5146238;23;21168;-88
2022/11/09 07:51:48;;;;;;;13.23;9.23;;;;;;;12.47;100.00;97968.44;5116658;23;20582;-88
2022/11/09 07:53:51;;;;;;;13.03;11.63;;;;;;;12.51;100.00;97961.19;5143151;23;20585;-88
2022/11/09 07:55:58;;;;;;;11.60;8.53;;;;;;;12.55;100.00;97965.22;5116337;23;20661;-88
2022/11/09 07:58:03;;;;;;;9.90;8.43;;;;;;;12.56;100.00;97966.91;5116954;23;20584;-88
2022/11/09 08:00:11;;;;;;;9.70;8.00;;;;;;;12.57;100.00;97976.41;5139576;23;20590;-87
2022/11/09 08:02:15;;;;;;;9.35;8.07;;;;;;;12.62;100.00;97982.13;5120021;23;21040;-89
2022/11/09 08:04:20;;;;;;;9.30;7.60;;;;;;;12.69;100.00;97982.34;5143318;23;20279;-88
2022/11/09 08:06:26;;;;;;;9.57;7.17;;;;;;;12.75;100.00;97981.88;5117312;23;20670;-87
2022/11/09 08:08:34;;;;;;;9.97;7.53;;;;;;;12.82;100.00;97977.88;5116891;23;21205;-86
2022/11/09 08:10:39;;;;;;;8.83;7.80;;;;;;;12.82;100.00;97977.88;5115064;23;20587;-87
2022/11/09 08:12:42;;;;;;;12.20;8.33;;;;;;;12.83;100.00;97974.28;5113799;23;20591;-88
2022/11/09 08:14:45;;;;;;;11.03;8.20;;;;;;;12.84;100.00;97969.91;5111190;23;20591;-88
2022/11/09 08:16:48;;;;;;;9.77;8.37;;;;;;;12.86;100.00;97974.03;5134157;23;20558;-87
2022/11/09 08:18:53;;;;;;;11.50;8.07;;;;;;;12.89;100.00;97981.66;5112543;23;20580;-87
2022/11/09 08:20:57;;;;;;;9.70;7.57;;;;;;;12.90;100.00;97980.69;5111592;23;21122;-87
2022/11/09 08:23:00;;;;;;;9.73;7.43;;;;;;;12.94;100.00;97992.56;5137984;23;20580;-87
2022/11/09 08:25:09;;;;;;;8.13;7.00;;;;;;;12.98;100.00;97994.00;5113752;23;20579;-87
2022/11/09 08:27:12;;;;;;;8.50;7.60;;;;;;;13.01;100.00;97993.75;5139948;22;20582;-87
2022/11/09 08:29:15;;;;;;;9.57;7.70;;;;;;;13.05;100.00;97989.97;5115064;23;20618;-87
2022/11/09 08:31:18;;;;;;;10.33;7.90;;;;;;;13.11;100.00;97993.84;5114783;23;20576;-87
2022/11/09 08:33:21;;;;;;;10.10;7.80;;;;;;;13.15;100.00;97992.66;5112150;23;20930;-87
2022/11/09 08:35:25;;;;;;;8.50;7.60;;;;;;;13.20;100.00;97988.72;5112056;23;21030;-88
2022/11/09 08:37:28;;;;;;;8.87;7.90;;;;;;;13.24;100.00;97995.38;5138454;23;20586;-88
2022/11/09 08:39:31;;;;;;;9.63;8.23;;;;;;;13.24;100.00;97992.75;5113984;23;20663;-87
2022/11/09 08:41:36;;;;;;;9.70;7.63;;;;;;;13.24;100.00;97998.00;5114130;23;20587;-88
2022/11/09 08:43:39;;;;;;;8.47;7.57;;;;;;;13.23;100.00;97993.72;5114658;23;20679;-87
2022/11/09 08:45:42;;;;;;;8.30;7.47;;;;;;;13.22;100.00;98005.16;5114589;23;20642;-87
2022/11/09 08:47:46;;;;;;;8.43;7.47;;;;;;;13.23;100.00;98001.59;5114914;23;20610;-88
2022/11/09 08:49:49;;;;;;;8.50;7.70;;;;;;;13.25;100.00;97991.81;5113747;23;20585;-87
2022/11/09 08:51:52;;;;;;;9.73;8.37;;;;;;;13.27;100.00;97989.88;5138044;23;20552;-87
2022/11/09 08:53:55;;;;;;;8.57;7.57;;;;;;;13.27;100.00;97989.88;5111865;23;20580;-88
2022/11/09 08:55:58;;;;;;;7.57;6.80;;;;;;;13.28;100.00;97979.28;5111952;23;21116;-88
2022/11/09 08:58:03;;;;;;;9.13;6.50;;;;;;;13.29;100.00;97982.72;5138919;23;20901;-88
2022/11/09 09:00:08;;;;;;;7.93;7.17;;;;;;;13.31;100.00;97983.47;5140695;22;21103;-86
2022/11/09 09:02:11;;;;;;;8.63;6.97;;;;;;;13.35;100.00;97983.09;5113809;23;20587;-87
2022/11/09 09:04:14;;;;;;;6.73;5.80;;;;;;;13.41;100.00;97995.69;5113200;23;20658;-88
2022/11/09 09:06:17;;;;;;;6.53;5.60;;;;;;;13.44;100.00;98000.69;5112372;23;20603;-88
2022/11/09 09:08:21;;;;;;;6.03;5.20;;;;;;;13.48;100.00;98001.25;5114672;23;20582;-88
2022/11/09 09:10:25;;;;;;;5.93;4.93;;;;;;;13.50;100.00;97997.56;5112207;23;20633;-88
2022/11/09 09:12:29;;;;;;;6.47;5.37;;;;;;;13.53;100.00;97996.47;5137254;23;21358;-88
2022/11/09 09:14:33;;;;;;;5.70;4.80;;;;;;;13.55;100.00;97992.78;5112223;23;20588;-89
2022/11/09 09:16:37;;;;;;;5.47;4.60;;;;;;;13.58;100.00;97997.75;5112704;23;20618;-89
2022/11/09 09:18:40;;;;;;;5.67;4.63;;;;;;;13.61;100.00;97996.69;5134723;22;20585;-88
2022/11/09 09:20:43;;;;;;;6.37;4.20;;;;;;;13.65;100.00;97994.50;5136934;23;20586;-87
2022/11/09 09:22:46;;;;;;;5.23;4.30;;;;;;;13.69;100.00;98001.16;5111436;23;20674;-88
2022/11/09 09:24:49;;;;;;;4.70;4.00;;;;;;;13.73;100.00;97997.31;5111700;23;20623;-88
2022/11/09 09:26:52;;;;;;;5.47;3.83;;;;;;;13.79;100.00;97983.72;5109517;23;21162;-88
2022/11/09 09:28:56;;;;;;;4.60;4.10;;;;;;;13.85;100.00;97993.69;5105852;23;20653;-88
2022/11/09 09:31:00;;;;;;;4.90;4.03;;;;;;;13.92;100.00;97992.25;5134119;23;20921;-88
2022/11/09 09:33:03;;;;;;;4.87;3.93;;;;;;;13.97;100.00;98003.16;5137810;23;20588;-92
2022/11/09 09:35:07;;;;;;;4.70;4.10;;;;;;;13.99;100.00;98006.50;5110415;23;20590;-91
2022/11/09 09:37:10;;;;;;;4.77;4.10;;;;;;;14.02;100.00;97998.38;5137353;23;20580;-88
2022/11/09 09:39:13;;;;;;;5.37;3.40;;;;;;;14.04;100.00;97996.44;5114199;23;20898;-88